CheckWX is a tool to help pilots better visualize weather data.  It is not intended as a substitute for an official pre-flight weather briefing.

17:28:25 UTC

EYPA METAR
Palanga International Airport
Palanga, Lithuania
Current

38 mins ago

EYPA 241650Z 25005KT 200V290 9999 BKN006 03/02 Q1017 R19/0///95
Observed
Mar-24 @ 16:50 UTC
Wind
  • 250° at 5 KTS
Visibility
10,000+ meters
Flight Rules
IFR
Cloud Levels
  • Broken at 600' AGL
Temperature
C / 37°F
Dewpoint
C / 36°F
Humidity
93%
Altimeter
30.03" Hg
Pressure
1016.92 hPa
Previous

1 hour ago

EYPA 241620Z 25005KT 200V320 9999 BKN006 03/02 Q1017 R19/0///95
Observed
Mar-24 @ 16:20 UTC
Wind
  • 250° at 5 KTS
Visibility
10,000+ meters
Flight Rules
IFR
Cloud Levels
  • Broken at 600' AGL
Temperature
C / 37°F
Dewpoint
C / 36°F
Humidity
93%
Altimeter
30.03" Hg
Pressure
1016.92 hPa
Previous

2 hours ago

EYPA 241550Z 25004KT 180V350 9999 SCT006 BKN140 04/02 Q1018 R19/0///95
Observed
Mar-24 @ 15:50 UTC
Wind
  • 250° at 4 KTS
Visibility
10,000+ meters
Flight Rules
VFR
Cloud Levels
  • Scattered at 600' AGL
  • Broken at 14,000' AGL
Temperature
C / 39°F
Dewpoint
C / 36°F
Humidity
87%
Altimeter
30.06" Hg
Pressure
1017.92 hPa